Airfield :
LOGIN :

Register | Disclaimer

   EN    FR    IT 

 










Legend :    VFR   Marginal VFR   IFR   Intensive IFR   Very Intensive IFR
Visi :
Ceiling :
>= 8 km
>= 3000ft
5 to 8 km
1000 to 3000 ft
1500m to 5 km
500 to 1000 ft
800 to 1500m
200 to 500 ft
< 800m
< 200 ft
Symbols :   Thunderstorms  Fog  Heavy snow  Heavy precipitations  Wind > 20 kt
SIGMETs :     Misc.  Thunderstorms  Icing  Turbulence  Mountain Waves  Volcanic Ashes







- Airport Elevation : 123 ft
- IATA code : BLQ


LIPE - Bologna Guglielmo Marconi

CURRENT METAR :
  • 202050Z 27005KT 250V310 7000 BKN028 SCT035 06/04 Q1011

EXPIRED METARs :
  • 202020Z 26005KT 6000 BKN028 SCT035 05/04 Q1011
  • 201950Z 24006KT 6000 BKN030 BKN035 05/05 Q1010
  • 201920Z 25006KT 6000 SCT020 BKN030 05/04 Q1010
  • 201850Z 27006KT 4000 -DZ BR BKN005 BKN015 05/04 Q1010
  • 201820Z 28006KT 4000 -DZ BR BKN005 SCT010 05/04 Q1010

TAF TAF LIPE
Valid from the 20 at 18:00 until the 21 at 18:00 UTC


201700Z 2018/2118 VRB05KT 7000 BKN010
BECMG 2020/2022 3000 BR
TEMPO 2100/2107 0600 BCFG
No reported NOTAMs for that airfield.



MET'MAP, your aeronautical weather chart ! - Copyright ORBIFLY December 2007 - Disclaimer

ORBIFLY MET'MAP TEAM :

Programming & Development : Alexandra Zaïnal
Concept & Development : Baudouin d'Aumeries
Co-Development & Prog : Marc-Olivier Méhu
Technical & hardware support : Manuel Goepfert

Contact : metmap@orbifly.com




SOURCES & CREDITS :

   NOAA